Time;durP1;ratioP1;P1;durP2;ratioP2;P2;SDS_P1;SDS_P2;PMS_P1;PMS_P2;Temp;Humidity;BMP_temperature;BMP_pressure;BME280_temperature;BME280_humidity;BME280_pressure;Samples;Min_cycle;Max_cycle;Signal;HPM_P1;HPM_P2
2022/03/20 00:01:22;;;;;;;27.60;16.77;;;;;;;9.06;46.92;101886.63;5128853;28;20315;-65
2022/03/20 00:03:50;;;;;;;26.07;15.70;;;;;;;9.04;46.46;101888.53;5126971;28;20244;-65
2022/03/20 00:06:19;;;;;;;27.40;16.43;;;;;;;9.10;46.63;101887.28;5128556;28;20569;-66
2022/03/20 00:08:52;;;;;;;24.73;15.67;;;;;;;8.83;47.59;101885.53;5126380;28;20243;-66
2022/03/20 00:11:20;;;;;;;25.87;16.07;;;;;;;9.03;47.40;101876.25;5128250;28;20219;-66
2022/03/20 00:13:47;;;;;;;26.57;16.17;;;;;;;8.80;47.50;101879.59;5127120;28;20325;-65
2022/03/20 00:16:18;;;;;;;26.23;15.27;;;;;;;8.91;47.21;101874.44;5128948;28;20243;-65
2022/03/20 00:18:46;;;;;;;25.70;16.17;;;;;;;8.91;47.29;101867.34;5126199;28;20240;-66
2022/03/20 00:21:14;;;;;;;24.23;16.87;;;;;;;8.92;47.07;101873.47;5127042;28;20557;-66
2022/03/20 00:23:45;;;;;;;23.50;16.00;;;;;;;8.81;47.34;101863.63;5125267;28;20305;-66
2022/03/20 00:26:13;;;;;;;25.73;16.33;;;;;;;8.93;46.79;101854.88;5126687;28;20212;-66
2022/03/20 00:28:42;;;;;;;25.13;15.63;;;;;;;8.75;47.12;101849.97;5124507;27;20220;-66
2022/03/20 00:31:10;;;;;;;26.10;16.17;;;;;;;8.27;48.02;101845.13;5125643;27;20236;-66
2022/03/20 00:33:38;;;;;;;25.90;17.10;;;;;;;8.46;47.66;101843.97;5125312;27;20303;-66
2022/03/20 00:36:05;;;;;;;26.43;16.57;;;;;;;8.72;46.99;101834.28;5126987;27;20209;-66
2022/03/20 00:38:33;;;;;;;26.40;16.43;;;;;;;8.62;46.93;101821.69;5126134;27;20572;-66
2022/03/20 00:41:02;;;;;;;27.90;17.47;;;;;;;8.67;47.14;101827.53;5125390;27;20216;-65
2022/03/20 00:43:29;;;;;;;25.47;16.30;;;;;;;8.63;46.98;101820.75;5128489;27;20376;-66
2022/03/20 00:45:57;;;;;;;24.20;15.53;;;;;;;8.76;46.80;101815.50;5130987;27;20316;-66
2022/03/20 00:48:25;;;;;;;19.33;14.37;;;;;;;8.71;46.55;101812.28;5128096;27;20204;-66
2022/03/20 00:50:53;;;;;;;28.77;15.77;;;;;;;8.63;46.91;101815.44;5125658;27;20211;-66
2022/03/20 00:53:21;;;;;;;23.53;15.77;;;;;;;8.38;47.56;101825.13;5127374;27;20744;-66
2022/03/20 00:55:48;;;;;;;26.20;17.13;;;;;;;8.18;48.58;101829.06;5126768;27;20654;-66
2022/03/20 00:58:17;;;;;;;23.50;15.27;;;;;;;8.37;48.04;101829.56;5126883;27;20223;-66
2022/03/20 01:00:45;;;;;;;25.73;16.70;;;;;;;8.34;47.86;101824.50;5126864;27;20451;-66
2022/03/20 01:03:13;;;;;;;24.93;16.43;;;;;;;7.92;48.48;101834.19;5123632;27;20300;-65
2022/03/20 01:05:41;;;;;;;24.07;15.93;;;;;;;7.97;48.60;101826.00;5124049;27;20225;-66
2022/03/20 01:08:18;;;;;;;29.37;16.23;;;;;;;8.13;48.56;101825.84;5123207;27;20297;-67
2022/03/20 01:10:52;;;;;;;25.37;15.53;;;;;;;8.27;48.15;101823.13;5124802;27;20217;-66
2022/03/20 01:13:23;;;;;;;26.87;16.17;;;;;;;7.64;49.59;101829.00;5125414;27;20359;-66
2022/03/20 01:15:51;;;;;;;25.30;15.73;;;;;;;7.77;49.79;101819.34;5125751;27;20293;-66
2022/03/20 01:18:19;;;;;;;24.03;14.93;;;;;;;7.93;49.24;101825.34;5125238;27;20291;-67
2022/03/20 01:20:47;;;;;;;24.40;15.63;;;;;;;7.60;50.31;101822.19;5122775;27;20278;-65
2022/03/20 01:23:29;;;;;;;22.80;15.10;;;;;;;7.76;49.83;101817.63;5125886;27;20207;-65
2022/03/20 01:26:11;;;;;;;26.73;15.73;;;;;;;8.12;48.72;101814.44;5125571;27;20238;-66
2022/03/20 01:28:40;;;;;;;23.90;15.77;;;;;;;7.95;48.91;101806.75;5126690;27;20207;-66
2022/03/20 01:31:08;;;;;;;27.10;16.00;;;;;;;7.96;48.93;101804.97;5125117;27;20227;-65
2022/03/20 01:33:36;;;;;;;25.90;16.00;;;;;;;7.62;49.98;101801.84;5127915;27;20227;-65
2022/03/20 01:36:06;;;;;;;23.90;15.50;;;;;;;7.98;48.83;101801.28;5123352;27;20312;-66
2022/03/20 01:38:52;;;;;;;25.90;17.27;;;;;;;8.02;48.65;101804.56;5122647;27;20227;-66
2022/03/20 01:41:20;;;;;;;27.70;16.33;;;;;;;8.10;48.38;101795.19;5124534;27;20212;-65
2022/03/20 01:44:02;;;;;;;23.80;15.50;;;;;;;8.01;48.52;101795.78;5127088;27;20575;-66
2022/03/20 01:46:32;;;;;;;24.87;17.03;;;;;;;7.90;48.38;101787.72;5123389;27;20736;-66
2022/03/20 01:49:00;;;;;;;25.97;15.93;;;;;;;7.98;48.18;101790.72;5124508;27;20220;-65
2022/03/20 01:54:21;;;;;;;26.57;16.17;;;;;;;8.04;47.43;101779.72;5121510;27;20207;-67
2022/03/20 01:56:55;;;;;;;27.57;17.17;;;;;;;7.94;47.64;101768.91;5124897;27;20269;-66
2022/03/20 01:59:37;;;;;;;26.43;16.77;;;;;;;8.05;47.22;101772.66;5123254;27;20689;-66
2022/03/20 02:02:05;;;;;;;21.63;15.47;;;;;;;7.93;47.49;101767.22;5125435;27;20227;-65
2022/03/20 02:04:35;;;;;;;30.07;17.20;;;;;;;7.95;47.44;101759.19;5125308;27;20303;-65
2022/03/20 02:07:04;;;;;;;24.17;14.87;;;;;;;7.48;48.70;101763.09;5125446;27;20252;-66
2022/03/20 02:09:34;;;;;;;25.00;16.20;;;;;;;7.80;48.04;101755.78;5122228;27;20246;-65
2022/03/20 02:12:02;;;;;;;26.50;16.97;;;;;;;7.76;48.07;101754.25;5123846;27;20314;-66
2022/03/20 02:14:32;;;;;;;27.53;15.87;;;;;;;7.69;48.40;101752.97;5120386;27;20242;-66
2022/03/20 02:17:00;;;;;;;26.93;16.33;;;;;;;7.71;48.38;101748.44;5126133;27;20307;-66
2022/03/20 02:19:29;;;;;;;25.03;15.60;;;;;;;7.55;48.37;101753.00;5125078;27;20278;-66
2022/03/20 02:21:58;;;;;;;27.30;15.23;;;;;;;7.77;47.98;101740.13;5125295;27;20201;-65
2022/03/20 02:24:30;;;;;;;26.40;16.43;;;;;;;7.66;48.36;101741.75;5124357;27;20207;-65
2022/03/20 02:27:09;;;;;;;27.90;17.03;;;;;;;7.69;48.59;101741.56;5123978;27;20333;-66
2022/03/20 02:29:37;;;;;;;25.17;17.13;;;;;;;7.39;49.38;101734.63;5126162;27;20288;-65
2022/03/20 02:32:06;;;;;;;28.67;16.73;;;;;;;7.68;48.44;101726.66;5126825;27;20217;-66
2022/03/20 02:34:49;;;;;;;25.37;16.57;;;;;;;7.52;48.65;101735.56;5122267;27;20207;-65
2022/03/20 02:37:30;;;;;;;24.10;16.70;;;;;;;7.56;48.76;101725.69;5126176;27;20237;-65
2022/03/20 02:40:03;;;;;;;27.17;16.37;;;;;;;7.37;49.36;101715.44;5123631;27;20571;-66
2022/03/20 02:42:35;;;;;;;26.30;16.57;;;;;;;7.66;48.65;101721.47;5122074;27;20209;-66
2022/03/20 02:45:05;;;;;;;25.90;16.90;;;;;;;7.47;49.08;101716.56;5122822;27;20213;-66
2022/03/20 02:47:41;;;;;;;27.23;15.70;;;;;;;7.55;48.67;101709.00;5124285;27;20296;-65
2022/03/20 02:50:27;;;;;;;24.67;16.07;;;;;;;7.40;49.24;101711.72;5125153;27;20213;-66
2022/03/20 02:52:58;;;;;;;26.67;15.77;;;;;;;7.52;48.65;101705.69;5121763;27;20210;-65
2022/03/20 02:55:27;;;;;;;31.37;16.40;;;;;;;7.43;48.70;101707.13;5120820;27;20202;-65
2022/03/20 02:57:57;;;;;;;24.90;16.63;;;;;;;7.35;49.14;101701.50;5123130;27;20202;-65
2022/03/20 03:00:28;;;;;;;25.53;15.43;;;;;;;7.50;48.65;101700.50;5123412;27;20290;-66
2022/03/20 03:02:58;;;;;;;25.47;16.33;;;;;;;7.56;48.52;101699.28;5126290;27;20205;-66
2022/03/20 03:05:27;;;;;;;26.13;16.30;;;;;;;7.28;49.62;101694.91;5123951;27;20226;-66
2022/03/20 03:10:59;;;;;;;27.37;17.40;;;;;;;7.40;49.04;101698.53;5122365;27;20305;-65
2022/03/20 03:13:29;;;;;;;25.87;15.80;;;;;;;7.15;49.30;101702.75;5120988;27;20619;-65
2022/03/20 03:15:58;;;;;;;28.60;16.57;;;;;;;7.18;49.38;101710.47;5122390;27;20741;-65
2022/03/20 03:18:27;;;;;;;27.53;17.50;;;;;;;7.20;49.27;101707.75;5124451;27;20289;-65
2022/03/20 03:20:55;;;;;;;24.67;15.57;;;;;;;7.23;48.95;101696.13;5122154;27;20577;-65
2022/03/20 03:23:25;;;;;;;24.87;15.87;;;;;;;7.26;48.83;101688.88;5124497;27;20203;-65
2022/03/20 03:25:54;;;;;;;23.77;15.60;;;;;;;7.00;49.31;101693.16;5123273;27;21958;-66
2022/03/20 03:28:22;;;;;;;26.63;16.77;;;;;;;7.10;49.49;101685.53;5123464;27;20281;-65
2022/03/20 03:30:50;;;;;;;28.70;16.97;;;;;;;7.15;48.88;101686.91;5121541;27;20210;-66
2022/03/20 03:33:20;;;;;;;26.73;16.03;;;;;;;7.12;48.75;101691.56;5123781;27;20217;-66
2022/03/20 03:35:53;;;;;;;24.63;16.53;;;;;;;7.00;49.58;101694.94;5126468;27;20276;-66
2022/03/20 03:38:25;;;;;;;24.63;16.63;;;;;;;7.17;49.24;101702.66;5127266;27;20233;-65
2022/03/20 03:40:54;;;;;;;30.67;17.40;;;;;;;7.09;48.86;101695.22;5121091;28;20206;-66
2022/03/20 03:43:28;;;;;;;29.30;16.47;;;;;;;6.88;49.29;101691.25;5121607;28;20213;-65
2022/03/20 03:45:59;;;;;;;27.40;16.67;;;;;;;7.00;49.13;101695.78;5123876;27;20221;-65
2022/03/20 03:48:27;;;;;;;26.63;16.43;;;;;;;7.11;48.85;101706.53;5121125;28;20700;-66
2022/03/20 03:50:56;;;;;;;27.80;16.17;;;;;;;7.07;49.00;101699.72;5123012;28;20216;-66
2022/03/20 03:53:25;;;;;;;29.73;16.87;;;;;;;7.11;49.07;101700.41;5121662;28;20698;-66
2022/03/20 03:55:55;;;;;;;27.53;15.73;;;;;;;6.82;49.39;101698.72;5121483;28;20206;-66
2022/03/20 03:58:23;;;;;;;25.47;15.73;;;;;;;6.60;50.33;101701.78;5126674;28;20296;-66
2022/03/20 04:00:51;;;;;;;26.70;15.87;;;;;;;6.54;50.81;101691.63;5123798;28;20297;-66
2022/03/20 04:03:19;;;;;;;26.80;16.27;;;;;;;6.70;50.19;101687.97;5125961;27;20581;-67
2022/03/20 04:05:51;;;;;;;30.53;16.87;;;;;;;6.89;49.72;101685.06;5126838;27;20209;-66
2022/03/20 04:08:21;;;;;;;25.53;15.80;;;;;;;6.93;49.45;101681.28;5122066;27;20303;-66
2022/03/20 04:10:51;;;;;;;27.30;15.43;;;;;;;6.99;48.92;101682.69;5127987;27;20205;-65
2022/03/20 04:13:21;;;;;;;28.03;16.37;;;;;;;7.04;48.83;101673.53;5124505;27;20220;-66
2022/03/20 04:15:49;;;;;;;25.90;15.23;;;;;;;6.37;50.59;101666.31;5127776;27;20293;-65
2022/03/20 04:18:16;;;;;;;26.43;16.30;;;;;;;6.64;49.54;101669.91;5129568;27;20198;-66
2022/03/20 04:20:53;;;;;;;23.90;15.70;;;;;;;6.84;49.04;101668.69;5112554;28;20566;-66
2022/03/20 04:26:07;;;;;;;26.73;16.00;;;;;;;6.88;48.81;101678.09;5132943;27;20539;-65
2022/03/20 04:28:36;;;;;;;26.27;16.23;;;;;;;6.73;49.27;101686.94;5133372;27;20231;-67
2022/03/20 04:31:05;;;;;;;28.20;16.10;;;;;;;6.53;49.77;101682.03;5133400;27;20211;-65
2022/03/20 04:33:35;;;;;;;28.30;15.83;;;;;;;6.24;50.42;101692.53;5128515;27;20201;-65
2022/03/20 04:36:08;;;;;;;26.20;16.60;;;;;;;6.25;50.79;101696.00;5125604;27;20308;-66
2022/03/20 04:38:36;;;;;;;24.57;15.13;;;;;;;6.43;49.92;101689.63;5124354;27;20206;-65
2022/03/20 04:41:03;;;;;;;30.07;15.93;;;;;;;6.74;49.21;101692.13;5128151;27;20208;-65
2022/03/20 04:43:33;;;;;;;29.43;16.70;;;;;;;6.97;48.10;101689.84;5129480;27;20304;-66
2022/03/20 04:46:00;;;;;;;29.13;16.13;;;;;;;6.52;49.23;101677.69;5128433;27;20231;-65
2022/03/20 04:59:31;;;;;;;28.07;16.40;;;;;;;6.94;48.41;101677.72;5128611;27;20335;-65
2022/03/20 05:01:59;;;;;;;30.47;16.93;;;;;;;6.79;48.57;101670.75;5129196;27;20225;-65
2022/03/20 05:04:27;;;;;;;26.97;15.33;;;;;;;6.81;48.43;101668.84;5129357;27;20248;-65
2022/03/20 05:06:55;;;;;;;26.70;16.63;;;;;;;6.69;48.37;101669.59;5128806;27;20231;-65
2022/03/20 05:14:58;;;;;;;24.70;15.90;;;;;;;6.00;50.63;101686.91;5122842;27;20324;-65
2022/03/20 05:17:26;;;;;;;25.37;15.27;;;;;;;5.96;51.19;101685.41;5125865;27;20260;-65
2022/03/20 05:19:54;;;;;;;25.37;15.93;;;;;;;6.47;50.03;101692.94;5121266;27;20205;-64
2022/03/20 05:22:21;;;;;;;28.73;16.57;;;;;;;6.49;49.96;101693.72;5124484;27;20685;-65
2022/03/20 05:24:49;;;;;;;25.70;15.83;;;;;;;6.68;49.36;101699.56;5125655;27;20209;-66
2022/03/20 05:27:17;;;;;;;29.43;16.13;;;;;;;6.72;49.09;101688.72;5124069;27;20312;-65
2022/03/20 05:29:44;;;;;;;30.13;16.93;;;;;;;6.70;49.30;101684.47;5123613;27;20216;-66
2022/03/20 05:32:14;;;;;;;26.03;16.27;;;;;;;6.50;49.80;101690.13;5126473;27;20753;-65
2022/03/20 05:34:41;;;;;;;28.70;16.03;;;;;;;6.77;49.09;101688.47;5124305;27;20341;-65
2022/03/20 05:37:11;;;;;;;33.80;18.03;;;;;;;6.20;50.86;101690.16;5124318;27;20292;-65
2022/03/20 05:39:39;;;;;;;29.43;16.10;;;;;;;5.89;52.01;101691.94;5124662;27;20202;-66
2022/03/20 05:42:07;;;;;;;27.03;15.57;;;;;;;6.13;51.84;101694.97;5123460;27;20224;-65
2022/03/20 05:44:35;;;;;;;24.73;16.23;;;;;;;6.19;51.56;101697.22;5126014;27;20241;-66
2022/03/20 05:47:04;;;;;;;28.70;16.20;;;;;;;6.28;51.04;101696.69;5123055;27;20243;-65
2022/03/20 05:49:35;;;;;;;31.03;16.13;;;;;;;6.21;51.09;101697.97;5126396;27;20225;-66
2022/03/20 05:52:03;;;;;;;23.87;15.47;;;;;;;6.09;51.46;101697.84;5124724;27;20580;-65
2022/03/20 05:54:31;;;;;;;34.67;17.30;;;;;;;5.86;52.15;101702.63;5126021;27;20206;-66
2022/03/20 05:59:44;;;;;;;32.50;16.83;;;;;;;6.57;50.34;101708.13;5125212;27;20620;-65
2022/03/20 06:02:12;;;;;;;31.93;17.97;;;;;;;6.72;49.88;101706.34;5123991;27;20274;-65
2022/03/20 06:04:41;;;;;;;26.90;16.67;;;;;;;6.62;50.14;101705.19;5123966;27;20229;-66
2022/03/20 06:07:09;;;;;;;27.47;16.07;;;;;;;6.41;50.86;101708.19;5122498;27;20257;-65
2022/03/20 06:09:38;;;;;;;30.17;17.27;;;;;;;6.39;51.20;101722.41;5126573;27;20201;-65
2022/03/20 06:12:06;;;;;;;32.50;17.57;;;;;;;6.53;50.91;101721.56;5122315;27;20653;-65
2022/03/20 06:14:35;;;;;;;26.27;15.80;;;;;;;6.54;50.69;101728.53;5124319;27;20233;-66
2022/03/20 06:17:13;;;;;;;28.63;17.30;;;;;;;6.78;50.08;101721.78;5124816;27;20216;-65
2022/03/20 06:19:44;;;;;;;28.00;17.10;;;;;;;6.49;50.64;101720.91;5124689;27;20284;-65
2022/03/20 06:22:13;;;;;;;27.23;16.10;;;;;;;6.60;50.68;101722.88;5124831;27;20294;-65
2022/03/20 06:24:40;;;;;;;28.73;17.60;;;;;;;6.59;50.66;101726.47;5124387;27;20212;-66
2022/03/20 06:27:08;;;;;;;33.73;18.33;;;;;;;6.68;50.28;101720.66;5122842;27;20206;-66
2022/03/20 06:29:36;;;;;;;28.27;17.07;;;;;;;6.96;49.61;101723.28;5125428;27;20569;-64
2022/03/20 06:32:05;;;;;;;30.77;17.23;;;;;;;7.08;49.18;101722.53;5121938;27;20211;-65
2022/03/20 06:34:33;;;;;;;33.50;17.43;;;;;;;7.24;48.62;101721.56;5121288;27;20258;-65
2022/03/20 06:37:02;;;;;;;30.50;17.60;;;;;;;7.24;49.14;101713.66;5123589;27;20213;-66
2022/03/20 06:39:30;;;;;;;29.47;17.90;;;;;;;7.21;49.24;101708.59;5123244;27;20726;-66
2022/03/20 06:41:57;;;;;;;29.47;17.70;;;;;;;6.81;50.92;101703.13;5124780;27;20209;-66
2022/03/20 06:44:25;;;;;;;27.57;17.27;;;;;;;7.11;49.31;101693.34;5124472;27;20602;-65
2022/03/20 06:46:54;;;;;;;28.97;17.10;;;;;;;7.06;49.53;101694.56;5123845;27;20247;-65
2022/03/20 06:49:24;;;;;;;30.07;18.40;;;;;;;7.27;49.20;101700.28;5122947;27;20240;-66
2022/03/20 06:51:52;;;;;;;29.83;18.07;;;;;;;7.28;49.77;101731.00;5126724;27;20205;-66
2022/03/20 06:54:21;;;;;;;32.67;19.27;;;;;;;7.09;49.95;101726.88;5123472;27;20303;-66
2022/03/20 06:56:49;;;;;;;30.37;19.23;;;;;;;7.04;50.80;101750.03;5124725;27;20675;-66
2022/03/20 06:59:18;;;;;;;30.43;18.67;;;;;;;6.89;50.10;101745.69;5124634;27;20298;-66
2022/03/20 07:01:46;;;;;;;34.13;19.40;;;;;;;6.99;50.43;101751.25;5124414;27;20309;-67
2022/03/20 07:04:14;;;;;;;35.50;19.63;;;;;;;7.34;49.59;101751.72;5125114;27;20576;-66
2022/03/20 07:06:42;;;;;;;36.77;18.80;;;;;;;7.18;49.83;101751.84;5122331;27;20577;-65
2022/03/20 07:09:09;;;;;;;34.50;19.03;;;;;;;7.21;49.66;101748.16;5120492;27;20415;-66
2022/03/20 07:11:38;;;;;;;30.57;18.83;;;;;;;7.32;49.84;101759.72;5128550;27;20564;-67
2022/03/20 07:14:06;;;;;;;31.60;18.80;;;;;;;7.51;49.36;101752.34;5127728;27;20240;-67
2022/03/20 07:16:34;;;;;;;29.17;16.90;;;;;;;7.52;49.44;101756.69;5129145;27;20246;-67
2022/03/20 07:19:02;;;;;;;29.90;18.60;;;;;;;7.67;49.00;101752.22;5127297;27;20255;-67
2022/03/20 07:21:32;;;;;;;29.37;18.40;;;;;;;7.59;48.21;101753.66;5109377;28;20212;-67
2022/03/20 07:24:00;;;;;;;28.17;17.73;;;;;;;7.83;48.49;101750.28;5121798;27;20264;-67
2022/03/20 07:29:32;;;;;;;31.67;18.67;;;;;;;7.75;49.72;101757.84;5129095;27;20231;-67
2022/03/20 07:32:04;;;;;;;31.33;18.53;;;;;;;7.98;48.95;101753.72;5129544;27;20198;-67
2022/03/20 07:34:32;;;;;;;28.70;17.93;;;;;;;7.89;49.34;101755.19;5126887;27;20358;-67
2022/03/20 07:37:00;;;;;;;29.93;19.23;;;;;;;8.11;48.75;101761.69;5127810;27;20710;-67
2022/03/20 07:39:28;;;;;;;31.13;19.67;;;;;;;8.24;48.28;101763.44;5126246;27;20436;-66
2022/03/20 07:41:56;;;;;;;30.57;18.60;;;;;;;8.44;47.52;101759.50;5128378;27;20217;-66
2022/03/20 07:44:26;;;;;;;30.67;18.87;;;;;;;8.48;48.04;101758.31;5125328;28;20219;-66
2022/03/20 07:46:54;;;;;;;34.63;19.37;;;;;;;8.49;47.43;101754.72;5123498;28;20346;-66
2022/03/20 07:49:31;;;;;;;33.30;20.60;;;;;;;8.72;47.10;101757.59;5124296;28;20267;-66
2022/03/20 07:51:59;;;;;;;33.50;20.13;;;;;;;8.83;46.31;101763.00;5122826;28;20302;-65
2022/03/20 07:54:27;;;;;;;33.63;20.13;;;;;;;8.96;46.08;101762.06;5121585;28;20208;-64
2022/03/20 07:56:54;;;;;;;34.67;19.30;;;;;;;8.94;45.04;101765.75;5116719;28;20213;-65
2022/03/20 07:59:24;;;;;;;30.43;19.90;;;;;;;9.22;45.43;101770.84;5118758;28;20397;-65
2022/03/20 08:02:05;;;;;;;33.47;19.33;;;;;;;9.37;45.23;101782.97;5124116;28;20207;-65
2022/03/20 08:04:33;;;;;;;31.37;20.10;;;;;;;9.23;45.40;101783.13;5124142;28;20201;-66
2022/03/20 08:07:04;;;;;;;33.17;21.07;;;;;;;9.33;45.18;101778.84;5126094;28;20209;-63
2022/03/20 08:09:32;;;;;;;33.20;20.20;;;;;;;9.51;44.83;101783.78;5127389;28;20222;-64
2022/03/20 08:12:01;;;;;;;32.97;20.40;;;;;;;9.57;44.25;101780.72;5126935;28;20605;-64
2022/03/20 08:14:48;;;;;;;30.87;19.80;;;;;;;9.54;43.85;101786.22;5125838;28;20242;-65
2022/03/20 08:17:18;;;;;;;30.80;19.73;;;;;;;9.82;43.51;101776.19;5124814;28;20254;-64
2022/03/20 08:19:45;;;;;;;30.83;21.13;;;;;;;9.80;43.26;101777.25;5125510;27;20650;-64
2022/03/20 08:22:13;;;;;;;32.27;19.90;;;;;;;9.68;42.82;101775.47;5125787;28;20213;-65
2022/03/20 08:24:51;;;;;;;30.27;19.80;;;;;;;9.77;42.90;101778.31;5124944;27;20202;-65
2022/03/20 08:27:20;;;;;;;29.97;19.87;;;;;;;10.30;42.23;101785.94;5123770;28;20307;-65
2022/03/20 08:29:48;;;;;;;30.63;19.57;;;;;;;10.61;41.52;101780.06;5121977;28;20307;-65
2022/03/20 08:32:19;;;;;;;34.00;21.57;;;;;;;10.83;40.97;101785.38;5126672;28;20565;-65
2022/03/20 08:34:50;;;;;;;30.83;20.60;;;;;;;11.67;39.77;101784.09;5126666;28;20642;-65
2022/03/20 08:37:17;;;;;;;34.57;22.17;;;;;;;12.44;38.73;101775.03;5124849;28;20211;-64
2022/03/20 08:39:45;;;;;;;32.63;21.00;;;;;;;14.44;35.11;101774.25;5125030;28;20208;-66
2022/03/20 08:42:13;;;;;;;29.90;20.40;;;;;;;15.87;32.99;101781.06;5120610;28;20214;-65
2022/03/20 08:44:41;;;;;;;32.73;21.27;;;;;;;13.86;35.87;101790.19;5126803;28;20256;-66
2022/03/20 08:47:09;;;;;;;32.47;22.47;;;;;;;12.99;37.29;101782.81;5127722;28;20386;-65
2022/03/20 08:49:38;;;;;;;36.53;23.90;;;;;;;12.98;37.22;101787.31;5128914;27;20255;-66
2022/03/20 08:52:11;;;;;;;33.13;23.17;;;;;;;14.02;35.84;101788.81;5129421;27;20684;-66
2022/03/20 08:54:48;;;;;;;30.90;21.97;;;;;;;16.88;32.21;101781.50;5127129;27;20216;-65
2022/03/20 08:57:16;;;;;;;37.77;23.27;;;;;;;20.87;26.28;101788.88;5132312;27;20625;-66
2022/03/20 08:59:44;;;;;;;32.47;23.77;;;;;;;20.12;26.65;101787.97;5129312;27;20761;-67
2022/03/20 09:02:11;;;;;;;31.17;23.40;;;;;;;22.08;24.62;101788.44;5123354;27;20198;-66
2022/03/20 09:04:41;;;;;;;31.20;23.97;;;;;;;23.93;22.49;101787.84;5124234;27;20220;-69
2022/03/20 09:07:09;;;;;;;29.83;23.53;;;;;;;23.58;22.99;101781.69;5128893;27;20208;-66
2022/03/20 09:09:36;;;;;;;27.77;21.70;;;;;;;24.52;22.18;101796.13;5125346;27;20312;-68
2022/03/20 09:12:05;;;;;;;26.45;21.30;;;;;;;25.21;21.33;101794.84;5127961;27;20347;-65
2022/03/20 09:14:33;;;;;;;28.92;22.52;;;;;;;25.30;21.36;101788.13;5125765;27;20604;-65
2022/03/20 09:19:47;;;;;;;28.70;25.05;;;;;;;23.73;22.77;101792.41;5131420;27;20197;-67
2022/03/20 09:22:16;;;;;;;27.60;23.30;;;;;;;24.11;22.58;101788.09;5129752;27;20516;-65
2022/03/20 09:24:44;;;;;;;27.45;24.45;;;;;;;22.08;24.77;101789.25;5123588;27;20205;-65
2022/03/20 09:27:11;;;;;;;27.38;24.33;;;;;;;21.89;24.96;101783.63;5127046;27;20197;-65
2022/03/20 09:29:39;;;;;;;29.55;24.73;;;;;;;22.74;24.69;101784.50;5128906;27;20233;-66
2022/03/20 09:32:08;;;;;;;36.67;27.35;;;;;;;22.12;25.09;101777.06;5123447;27;20571;-65
2022/03/20 09:34:35;;;;;;;31.52;25.90;;;;;;;20.79;26.04;101786.25;5129456;27;20551;-65
2022/03/20 09:37:05;;;;;;;30.35;25.90;;;;;;;21.71;24.74;101784.88;5127065;27;20221;-65
2022/03/20 09:39:33;;;;;;;30.52;24.58;;;;;;;20.19;26.77;101787.06;5125581;27;20231;-66
2022/03/20 09:42:13;;;;;;;30.48;24.55;;;;;;;20.13;26.77;101789.63;5126308;27;20300;-65
2022/03/20 09:44:42;;;;;;;29.00;25.05;;;;;;;16.61;30.53;101799.53;5128387;27;20295;-66
2022/03/20 09:47:11;;;;;;;30.70;24.33;;;;;;;18.25;29.64;101796.47;5129339;27;20229;-64
2022/03/20 09:49:40;;;;;;;30.05;25.38;;;;;;;17.73;30.05;101795.88;5131266;27;20217;-66
2022/03/20 09:52:10;;;;;;;29.50;24.35;;;;;;;16.08;32.21;101801.22;5124606;27;20216;-65
2022/03/20 09:54:38;;;;;;;31.13;25.23;;;;;;;14.91;34.72;101798.34;5129297;27;20292;-68
2022/03/20 09:57:07;;;;;;;32.33;25.40;;;;;;;14.12;36.16;101803.84;5128579;27;20507;-66
2022/03/20 09:59:38;;;;;;;32.20;25.50;;;;;;;13.86;36.86;101813.34;5126681;27;21138;-68
2022/03/20 10:02:08;;;;;;;33.50;23.83;;;;;;;14.74;35.48;101812.44;5121643;27;20682;-68
2022/03/20 10:04:52;;;;;;;34.37;24.90;;;;;;;13.73;37.09;101834.06;5115717;27;20202;-66
2022/03/20 10:07:26;;;;;;;30.93;25.17;;;;;;;14.40;36.88;101828.91;5117262;27;20639;-66
2022/03/20 10:10:07;;;;;;;32.47;24.97;;;;;;;14.53;36.10;101826.78;5121861;27;20212;-66
2022/03/20 10:12:37;;;;;;;34.27;25.20;;;;;;;16.74;33.28;101816.88;5125778;27;20650;-64
2022/03/20 10:15:06;;;;;;;33.23;25.20;;;;;;;17.37;31.91;101831.88;5120967;27;20265;-67
2022/03/20 10:17:39;;;;;;;38.47;25.50;;;;;;;17.62;32.17;101828.34;5126658;27;22048;-65
2022/03/20 10:20:15;;;;;;;30.50;24.30;;;;;;;19.89;28.71;101823.75;5123213;27;20202;-65
2022/03/20 10:22:45;;;;;;;33.27;24.93;;;;;;;17.17;32.38;101837.44;5123389;27;21214;-64
2022/03/20 10:25:20;;;;;;;33.53;25.20;;;;;;;17.49;31.94;101831.44;5126509;27;20304;-66
2022/03/20 10:27:58;;;;;;;34.93;25.67;;;;;;;15.75;34.97;101837.44;5129171;27;20420;-65
2022/03/20 10:30:25;;;;;;;32.20;25.60;;;;;;;14.96;36.16;101834.31;5117819;27;20674;-65
2022/03/20 10:32:53;;;;;;;31.40;24.13;;;;;;;14.52;37.34;101830.41;5125676;27;20213;-66
2022/03/20 10:35:21;;;;;;;34.90;23.80;;;;;;;15.76;35.41;101840.97;5129037;27;20235;-64
2022/03/20 10:37:55;;;;;;;32.17;23.93;;;;;;;14.75;36.86;101851.50;5128679;27;20201;-67
2022/03/20 10:40:25;;;;;;;38.47;24.73;;;;;;;17.74;32.38;101845.00;5127379;27;20357;-66
2022/03/20 10:43:11;;;;;;;32.33;24.07;;;;;;;14.93;36.26;101845.31;5129183;27;20254;-66
2022/03/20 10:46:00;;;;;;;32.17;24.77;;;;;;;13.78;39.09;101846.03;5130968;27;20229;-66
2022/03/20 10:48:35;;;;;;;33.90;23.83;;;;;;;13.83;39.21;101846.44;5110440;28;20206;-66
2022/03/20 10:51:03;;;;;;;35.77;25.80;;;;;;;13.56;39.88;101851.53;5117089;27;20346;-66
2022/03/20 10:53:33;;;;;;;32.03;23.20;;;;;;;13.30;40.00;101848.47;5126605;27;20197;-65
2022/03/20 10:56:06;;;;;;;35.87;25.37;;;;;;;12.93;41.01;101847.25;5120020;27;20209;-64
2022/03/20 10:58:38;;;;;;;33.93;23.37;;;;;;;12.94;41.62;101847.09;5124808;27;20625;-64
2022/03/20 11:01:07;;;;;;;35.53;25.07;;;;;;;16.89;35.29;101841.25;5126097;27;20206;-66
2022/03/20 11:03:37;;;;;;;34.87;23.60;;;;;;;16.76;34.52;101839.00;5130477;27;20674;-66
2022/03/20 11:06:07;;;;;;;33.87;24.47;;;;;;;13.59;40.41;101840.63;5118185;27;20206;-67
2022/03/20 11:08:38;;;;;;;34.70;23.87;;;;;;;13.57;40.60;101837.22;5116082;27;20237;-67
2022/03/20 11:11:08;;;;;;;32.80;24.30;;;;;;;13.32;41.60;101849.19;5114922;27;20686;-65
2022/03/20 11:13:39;;;;;;;32.07;24.13;;;;;;;13.46;41.30;101845.31;5120289;27;20237;-66
2022/03/20 11:16:10;;;;;;;37.70;24.77;;;;;;;13.34;41.80;101839.25;5122341;27;20216;-67
2022/03/20 11:18:39;;;;;;;35.43;24.47;;;;;;;13.18;41.67;101842.41;5122048;27;20213;-65
2022/03/20 11:21:10;;;;;;;37.03;24.00;;;;;;;12.93;42.57;101840.09;5128398;27;20292;-66
2022/03/20 11:23:40;;;;;;;34.00;23.77;;;;;;;12.89;42.74;101844.00;5127682;27;20237;-66
2022/03/20 11:26:11;;;;;;;34.10;23.63;;;;;;;12.79;43.20;101840.41;5126694;27;20202;-65
2022/03/20 11:28:45;;;;;;;34.43;24.00;;;;;;;12.71;43.59;101845.53;5126922;27;20209;-65
2022/03/20 11:31:14;;;;;;;33.50;24.57;;;;;;;12.92;43.43;101833.09;5123145;27;20646;-68
2022/03/20 11:33:48;;;;;;;37.30;24.47;;;;;;;13.26;42.77;101840.88;5122153;27;20209;-66
2022/03/20 11:36:17;;;;;;;34.27;23.00;;;;;;;13.04;43.52;101833.84;5119549;27;20210;-66
2022/03/20 11:39:10;;;;;;;32.27;22.97;;;;;;;14.00;42.78;101838.75;5118248;27;20254;-66
2022/03/20 11:41:38;;;;;;;33.53;23.07;;;;;;;15.28;39.72;101825.09;5127356;27;20239;-65
2022/03/20 11:44:20;;;;;;;32.83;22.47;;;;;;;17.53;35.26;101829.25;5125416;27;20205;-66
2022/03/20 11:46:50;;;;;;;30.07;22.90;;;;;;;18.12;34.66;101828.31;5123069;27;20227;-66
2022/03/20 11:49:23;;;;;;;33.57;23.37;;;;;;;17.88;34.50;101825.59;5122757;27;20197;-68
2022/03/20 11:51:56;;;;;;;28.88;23.25;;;;;;;18.34;33.50;101816.97;5125120;27;20226;-68
2022/03/20 11:54:31;;;;;;;28.17;23.13;;;;;;;18.30;33.44;101812.91;5123448;28;20213;-67
2022/03/20 11:57:00;;;;;;;27.73;22.42;;;;;;;18.48;33.43;101811.91;5120906;28;20205;-67
2022/03/20 11:59:47;;;;;;;26.05;21.23;;;;;;;17.21;35.64;101811.19;5117061;28;20305;-69
2022/03/20 12:02:43;;;;;;;28.80;22.40;;;;;;;16.96;36.16;101812.03;5124333;28;20210;-68